Torm Republican — OYNE2 — position and weather

sailwx.info

Track history (hours):
 
Tides and Currents Weather Stations Pressure Air Temp Water Temp Dewpoint Dewpoint Depression Visibility Wind Speed Wind Dir Waves Ship Positions

Torm Republican

Last reported at 2017-Jun-26 04:59 UTC. Time now 2017-Jun-27 07:15 UTC.
Position N 29°21' W 094°47'.

Length 183 m; draft 9.6 m.

Type: Tanker. MMSI: 220560000.

Date/timePositionNaut miles runAvg speedWind from/ knotsBaromVisibWave heightAir tempDewpointWater temp
2017-Jun-26 04:59N 29°21' W 094°47'613.5
2017-Jun-26 04:30N 29°27' W 094°50'612.4
2017-Jun-26 04:00N 29°32' W 094°54'611.5
2017-Jun-26 03:30N 29°37' W 094°57'510.9
2017-Jun-26 03:00N 29°42' W 094°60'4 7.8
2017-Jun-26 02:31N 29°44' W 095°03'3 5.3
2017-Jun-26 02:00N 29°44' W 095°07'3 6.5
2017-Jun-26 01:29N 29°45' W 095°10'2 4.7
2017-Jun-26 01:00N 29°44' W 095°13'1 1.4
2017-Jun-26 00:30N 29°44' W 095°13'0 0.0
2017-Jun-26 00:00N 29°44' W 095°13'0 0.0
2017-Jun-25 06:59N 29°44' W 095°13'0 0.1
2017-Jun-25 06:30N 29°44' W 095°13'2 3.3
2017-Jun-25 05:59N 29°45' W 095°12'3 5.4
2017-Jun-25 05:30N 29°44' W 095°09'3 6.3
2017-Jun-25 05:00N 29°45' W 095°06'3 6.8
2017-Jun-25 04:30N 29°44' W 095°02'4 8.1
2017-Jun-25 04:00N 29°41' W 094°59'611.2
2017-Jun-25 03:30N 29°36' W 094°57'611.3
2017-Jun-25 03:00N 29°31' W 094°53'510.7
2017-Jun-25 02:30N 29°26' W 094°50'610.2
2017-Jun-25 01:54N 29°21' W 094°47'6 0.2
2017-Jun-23 21:41N 29°23' W 094°53'1 3.0
2017-Jun-23 21:28N 29°22' W 094°53'0 0.0
2017-Jun-21 18:32N 29°22' W 094°53'0 0.0
2017-Jun-21 18:22N 29°22' W 094°53'1 1.4
2017-Jun-21 18:00N 29°23' W 094°53'4 8.6
2017-Jun-21 17:30N 29°22' W 094°48'  
Track history (hours):
 
Tides and Currents Weather Stations Pressure Air Temp Water Temp Dewpoint Dewpoint Depression Visibility Wind Speed Wind Dir Waves Ship Positions

Torm Republican

Last reported at 2017-Jun-26 04:59 UTC. Time now 2017-Jun-27 07:15 UTC.
Position N 29°21' W 094°47'.

Length 183 m; draft 9.6 m.

Type: Tanker. MMSI: 220560000.

Date/timePositionNaut miles runAvg speedWind from/ knotsBaromVisibWave heightAir tempDewpointWater temp
2017-Jun-26 04:59N 29°21' W 094°47'613.5
2017-Jun-26 04:30N 29°27' W 094°50'612.4
2017-Jun-26 04:00N 29°32' W 094°54'611.5
2017-Jun-26 03:30N 29°37' W 094°57'510.9
2017-Jun-26 03:00N 29°42' W 094°60'4 7.8
2017-Jun-26 02:31N 29°44' W 095°03'3 5.3
2017-Jun-26 02:00N 29°44' W 095°07'3 6.5
2017-Jun-26 01:29N 29°45' W 095°10'2 4.7
2017-Jun-26 01:00N 29°44' W 095°13'1 1.4
2017-Jun-26 00:30N 29°44' W 095°13'0 0.0
2017-Jun-26 00:00N 29°44' W 095°13'0 0.0
2017-Jun-25 06:59N 29°44' W 095°13'0 0.1
2017-Jun-25 06:30N 29°44' W 095°13'2 3.3
2017-Jun-25 05:59N 29°45' W 095°12'3 5.4
2017-Jun-25 05:30N 29°44' W 095°09'3 6.3
2017-Jun-25 05:00N 29°45' W 095°06'3 6.8
2017-Jun-25 04:30N 29°44' W 095°02'4 8.1
2017-Jun-25 04:00N 29°41' W 094°59'611.2
2017-Jun-25 03:30N 29°36' W 094°57'611.3
2017-Jun-25 03:00N 29°31' W 094°53'510.7
2017-Jun-25 02:30N 29°26' W 094°50'610.2
2017-Jun-25 01:54N 29°21' W 094°47'6 0.2
2017-Jun-23 21:41N 29°23' W 094°53'1 3.0
2017-Jun-23 21:28N 29°22' W 094°53'0 0.0
2017-Jun-21 18:32N 29°22' W 094°53'0 0.0
2017-Jun-21 18:22N 29°22' W 094°53'1 1.4
2017-Jun-21 18:00N 29°23' W 094°53'4 8.6
2017-Jun-21 17:30N 29°22' W 094°48'  

Dump ship's entire track history